Time;durP1;ratioP1;P1;durP2;ratioP2;P2;SDS_P1;SDS_P2;PMS_P1;PMS_P2;Temp;Humidity;BMP_temperature;BMP_pressure;BME280_temperature;BME280_humidity;BME280_pressure;Samples;Min_cycle;Max_cycle;Signal;HPM_P1;HPM_P2
2021/12/07 00:01:20;;;;;;;25.60;13.40;;;;;;;4.27;71.10;98544.89;1767951;81;21032;-40
2021/12/07 00:03:47;;;;;;;21.50;12.45;;;;;;;4.28;71.17;98548.37;1757334;81;21185;-40
2021/12/07 00:06:14;;;;;;;19.95;12.18;;;;;;;4.27;71.07;98549.48;1751548;81;21550;-40
2021/12/07 00:08:41;;;;;;;20.57;12.13;;;;;;;4.22;71.06;98549.15;1744958;82;21494;-40
2021/12/07 00:11:10;;;;;;;18.10;11.90;;;;;;;4.24;71.08;98548.27;1756883;81;21017;-40
2021/12/07 00:13:39;;;;;;;18.55;11.40;;;;;;;4.31;70.95;98545.00;1756857;81;21613;-41
2021/12/07 00:16:08;;;;;;;21.20;12.15;;;;;;;4.36;70.97;98546.89;1757399;81;21111;-41
2021/12/07 00:18:36;;;;;;;20.10;8.90;;;;;;;4.39;70.92;98557.53;1757031;81;21013;-41
2021/12/07 00:21:04;;;;;;;20.85;11.40;;;;;;;4.39;70.79;98560.21;1745216;82;23482;-41
2021/12/07 00:23:31;;;;;;;19.70;11.38;;;;;;;4.40;70.64;98561.00;1756892;81;21041;-40
2021/12/07 00:25:58;;;;;;;20.15;11.68;;;;;;;4.39;70.59;98554.84;1757269;81;21112;-40
2021/12/07 00:28:24;;;;;;;27.35;11.75;;;;;;;4.36;70.53;98558.97;1744930;82;21487;-41
2021/12/07 00:30:53;;;;;;;18.90;11.25;;;;;;;4.34;70.51;98574.64;1756830;81;21013;-40
2021/12/07 00:35:51;;;;;;;27.22;13.78;;;;;;;4.29;70.33;98574.08;1757206;81;21033;-41
2021/12/07 00:38:22;;;;;;;35.78;13.25;;;;;;;4.21;70.55;98568.28;1756869;81;21295;-41
2021/12/07 00:40:49;;;;;;;32.55;14.93;;;;;;;4.14;70.75;98566.16;1757210;81;21148;-41
2021/12/07 00:43:16;;;;;;;34.23;13.65;;;;;;;4.12;70.97;98572.95;1744918;82;21028;-40
2021/12/07 00:45:45;;;;;;;26.37;12.88;;;;;;;4.07;71.03;98570.50;1757043;81;21008;-40
2021/12/07 00:48:14;;;;;;;25.67;12.53;;;;;;;4.02;71.10;98566.14;1757277;81;21036;-41
2021/12/07 00:50:45;;;;;;;23.37;12.97;;;;;;;3.98;71.21;98575.97;1745409;82;21594;-41
2021/12/07 00:53:12;;;;;;;23.90;12.40;;;;;;;3.99;71.07;98586.14;1756796;81;21848;-40
2021/12/07 00:55:44;;;;;;;19.27;10.93;;;;;;;3.95;71.07;98588.72;1757013;81;22148;-40
2021/12/07 00:58:20;;;;;;;24.23;11.50;;;;;;;3.91;71.09;98580.57;1756958;81;21515;-40
2021/12/07 01:00:50;;;;;;;20.68;11.90;;;;;;;3.87;71.48;98576.97;1757447;81;20981;-41
2021/12/07 01:03:17;;;;;;;23.02;11.75;;;;;;;3.85;71.43;98584.58;1754801;81;21001;-41
2021/12/07 01:05:49;;;;;;;25.77;11.20;;;;;;;3.77;71.46;98576.09;1811764;79;21124;-41
2021/12/07 01:24:44;;;;;;;21.37;11.40;;;;;;;3.79;71.87;98571.16;1756600;79;20996;-41
2021/12/07 01:27:12;;;;;;;20.23;11.95;;;;;;;3.79;71.85;98560.44;1810866;79;21495;-40
2021/12/07 01:29:41;;;;;;;16.00;10.25;;;;;;;3.85;71.81;98564.47;1761717;81;21000;-40
2021/12/07 01:32:22;;;;;;;14.95;9.80;;;;;;;3.94;71.65;98565.14;1761538;81;21194;-40
2021/12/07 01:37:31;;;;;;;18.65;10.53;;;;;;;3.88;71.28;98580.44;1791134;79;20936;-41
2021/12/07 01:45:36;;;;;;;18.52;11.18;;;;;;;3.59;72.11;98569.34;1770774;81;21880;-42
2021/12/07 01:48:00;;;;;;;18.40;10.95;;;;;;;3.58;72.25;98569.69;1757472;81;21044;-41
2021/12/07 01:57:49;;;;;;;18.32;10.80;;;;;;;3.63;72.12;98563.53;1761614;81;21515;-41
2021/12/07 02:01:09;;;;;;;20.95;10.48;;;;;;;3.53;72.65;98563.98;1781389;80;21068;-41
2021/12/07 02:03:38;;;;;;;;;;;;;;;3.50;72.48;98575.34;1784273;80;21459;-41
2021/12/07 02:06:06;;;;;;;19.30;11.10;;;;;;;3.51;72.54;98571.56;1782403;80;20127;-42
2021/12/07 02:08:33;;;;;;;18.98;11.60;;;;;;;3.45;72.95;98570.20;1782019;80;21691;-41
2021/12/07 02:11:02;;;;;;;18.73;11.22;;;;;;;3.53;73.05;98569.34;1782057;80;21142;-42
2021/12/07 02:15:58;;;;;;;17.62;10.93;;;;;;;3.66;72.59;98563.44;1758630;80;20894;-42
2021/12/07 02:18:25;;;;;;;14.45;10.05;;;;;;;3.67;72.36;98578.41;1782172;80;21267;-42
2021/12/07 02:20:52;;;;;;;15.90;10.25;;;;;;;3.67;72.23;98577.08;1782096;80;20993;-41
2021/12/07 02:23:19;;;;;;;15.70;9.30;;;;;;;3.66;72.08;98578.97;1781803;80;21169;-41
2021/12/07 02:25:46;;;;;;;18.30;10.08;;;;;;;3.69;72.11;98582.31;1781993;80;20980;-41
2021/12/07 02:28:15;;;;;;;19.90;11.10;;;;;;;3.71;72.21;98578.75;1782174;80;21016;-42
2021/12/07 02:30:42;;;;;;;22.67;11.30;;;;;;;3.71;72.16;98584.11;1782011;80;21026;-41
2021/12/07 02:33:09;;;;;;;25.52;12.47;;;;;;;3.66;72.19;98583.55;1734049;82;21040;-41
2021/12/07 02:35:38;;;;;;;20.25;11.53;;;;;;;3.63;72.34;98589.58;1763762;81;21163;-41
2021/12/07 02:38:05;;;;;;;22.82;11.35;;;;;;;3.66;72.15;98596.95;1781821;80;21025;-41
2021/12/07 02:40:35;;;;;;;18.07;11.30;;;;;;;3.66;72.16;98595.61;1804054;79;20921;-42
2021/12/07 02:43:02;;;;;;;21.52;12.63;;;;;;;3.70;72.11;98591.92;1814051;79;20997;-41
2021/12/07 02:45:29;;;;;;;23.47;12.65;;;;;;;3.71;72.27;98590.81;1813936;79;21028;-42
2021/12/07 02:47:56;;;;;;;28.05;13.38;;;;;;;3.76;72.25;98579.88;1813995;79;21849;-42
2021/12/07 02:50:23;;;;;;;25.70;12.65;;;;;;;3.82;72.13;98575.09;1814176;79;21000;-41
2021/12/07 02:52:50;;;;;;;22.00;12.20;;;;;;;3.83;72.05;98569.38;1813944;79;20985;-41
2021/12/07 02:55:17;;;;;;;23.60;12.37;;;;;;;3.87;71.84;98571.61;1813971;79;20969;-41
2021/12/07 02:57:44;;;;;;;27.40;12.47;;;;;;;3.96;71.68;98566.16;1814060;79;21063;-41
2021/12/07 03:00:18;;;;;;;20.45;10.95;;;;;;;4.05;71.60;98563.36;1814025;79;21150;-42
2021/12/07 03:02:46;;;;;;;26.82;11.50;;;;;;;4.06;71.30;98569.74;1797179;79;21003;-42
2021/12/07 03:05:40;;;;;;;18.92;9.55;;;;;;;4.05;71.30;98570.06;1795326;79;21015;-41
2021/12/07 03:26:48;;;;;;;21.52;9.63;;;;;;;3.97;70.74;98558.90;1814223;79;21495;-42
2021/12/07 03:29:15;;;;;;;20.23;10.48;;;;;;;3.95;70.73;98559.23;1813986;79;21518;-42
2021/12/07 03:31:42;;;;;;;17.45;9.73;;;;;;;3.94;70.71;98565.70;1814270;79;21470;-42
2021/12/07 03:34:09;;;;;;;17.15;9.83;;;;;;;3.95;70.57;98564.59;1814226;79;21001;-42
2021/12/07 03:36:35;;;;;;;16.50;10.53;;;;;;;3.98;70.49;98575.97;1814270;79;21083;-42
2021/12/07 03:39:06;;;;;;;18.90;9.75;;;;;;;4.01;70.37;98582.03;1814027;79;21119;-41
2021/12/07 03:41:33;;;;;;;15.83;9.10;;;;;;;4.00;70.41;98576.44;1813730;79;21625;-41
2021/12/07 03:44:00;;;;;;;17.60;10.45;;;;;;;4.00;70.49;98587.72;1814221;79;21502;-42
2021/12/07 03:46:27;;;;;;;17.55;10.45;;;;;;;3.99;70.48;98594.98;1814151;79;20981;-42
2021/12/07 03:48:55;;;;;;;18.27;10.58;;;;;;;3.98;70.48;98600.67;1814149;79;21032;-41
2021/12/07 03:51:22;;;;;;;18.27;10.13;;;;;;;3.98;70.35;98602.01;1814166;79;21143;-41
2021/12/07 03:53:48;;;;;;;14.10;9.30;;;;;;;3.92;70.11;98603.56;1814121;79;21039;-42
2021/12/07 03:56:15;;;;;;;13.53;9.28;;;;;;;3.86;70.13;98606.26;1814113;79;20960;-42
2021/12/07 03:58:43;;;;;;;21.07;11.05;;;;;;;3.85;70.21;98607.92;1814084;79;21294;-42
2021/12/07 04:01:12;;;;;;;19.75;11.33;;;;;;;3.83;70.37;98608.25;1814267;79;21080;-41
2021/12/07 04:03:41;;;;;;;20.02;11.73;;;;;;;3.81;70.52;98607.81;1812709;79;21148;-42
2021/12/07 04:06:08;;;;;;;20.75;11.50;;;;;;;3.80;70.50;98610.82;1810813;79;20984;-41
2021/12/07 04:08:39;;;;;;;17.40;10.82;;;;;;;3.79;70.60;98617.29;1810328;79;21078;-41
2021/12/07 04:11:05;;;;;;;15.63;10.18;;;;;;;3.77;70.53;98631.05;1810425;79;21515;-41
2021/12/07 04:13:33;;;;;;;14.38;9.58;;;;;;;3.71;70.57;98628.34;1810464;79;21067;-42
2021/12/07 04:16:00;;;;;;;13.68;9.75;;;;;;;3.70;70.72;98628.11;1810312;79;21635;-41
2021/12/07 04:18:28;;;;;;;13.32;9.28;;;;;;;3.73;70.71;98624.76;1810157;79;21272;-41
2021/12/07 04:20:56;;;;;;;16.40;9.83;;;;;;;3.67;70.72;98625.32;1810343;79;20903;-41
2021/12/07 04:23:23;;;;;;;15.78;9.83;;;;;;;3.61;71.07;98632.00;1810593;79;21064;-41
2021/12/07 04:25:49;;;;;;;17.77;10.32;;;;;;;3.56;71.11;98640.24;1810530;79;21064;-42
2021/12/07 04:28:16;;;;;;;15.72;10.05;;;;;;;3.50;71.25;98636.98;1810303;79;22049;-41
2021/12/07 04:30:43;;;;;;;15.25;10.55;;;;;;;3.47;71.26;98642.46;1803950;79;20918;-42
2021/12/07 04:33:12;;;;;;;15.63;10.45;;;;;;;3.44;71.52;98628.92;1810694;79;20968;-42
2021/12/07 04:35:44;;;;;;;13.18;9.68;;;;;;;3.51;71.64;98623.81;1810372;79;20997;-41
2021/12/07 04:38:11;;;;;;;14.35;9.98;;;;;;;3.65;71.61;98632.34;1810898;79;20982;-42
2021/12/07 04:40:37;;;;;;;15.85;11.35;;;;;;;3.67;71.42;98631.47;1810360;79;21164;-42
2021/12/07 04:43:04;;;;;;;16.37;11.70;;;;;;;3.68;71.45;98624.21;1810357;79;21537;-42
2021/12/07 04:48:26;;;;;;;20.02;13.18;;;;;;;3.72;71.29;98641.98;1810744;79;21017;-41
2021/12/07 04:58:34;;;;;;;23.18;13.75;;;;;;;3.54;71.33;98664.69;1810379;79;20996;-41
2021/12/07 05:01:06;;;;;;;25.95;14.90;;;;;;;3.46;71.52;98668.23;1810442;79;20993;-41
2021/12/07 05:03:30;;;;;;;25.05;14.95;;;;;;;3.39;71.69;98665.29;1810186;78;21230;-41
2021/12/07 05:05:56;;;;;;;24.32;14.60;;;;;;;3.34;71.93;98662.84;1814080;79;21117;-41
2021/12/07 05:08:43;;;;;;;23.67;14.07;;;;;;;3.31;71.96;98658.91;1814193;79;21019;-41
2021/12/07 05:16:32;;;;;;;27.37;15.58;;;;;;;3.26;72.16;98684.55;1814069;79;21590;-41
2021/12/07 05:23:53;;;;;;;26.20;14.75;;;;;;;3.21;72.45;98691.44;1812420;79;21141;-41
2021/12/07 05:24:22;;;;;;;24.45;14.07;;;;;;;3.11;72.72;98683.02;1814398;79;20994;-41
2021/12/07 05:40:13;;;;;;;25.88;14.90;;;;;;;3.14;73.29;98638.19;1814531;78;21000;-41
2021/12/07 05:42:41;;;;;;;;;;;;;;;3.23;73.00;98639.69;1816663;79;21041;-41
2021/12/07 05:45:11;;;;;;;20.92;12.50;;;;;;;3.36;72.82;98649.88;1814381;79;20638;-41
2021/12/07 05:47:38;;;;;;;21.75;12.30;;;;;;;3.37;72.83;98653.58;1797510;79;21004;-42
2021/12/07 05:50:07;;;;;;;21.52;12.33;;;;;;;3.44;72.61;98651.69;1814229;79;21608;-41
2021/12/07 05:52:34;;;;;;;22.55;13.08;;;;;;;3.50;72.43;98649.05;1797531;79;21024;-41
2021/12/07 05:55:00;;;;;;;20.30;12.35;;;;;;;3.53;72.14;98648.41;1814582;79;21021;-41
2021/12/07 05:57:27;;;;;;;19.25;10.93;;;;;;;3.54;72.02;98655.30;1797467;79;21195;-42
2021/12/07 05:59:53;;;;;;;18.80;12.10;;;;;;;3.56;71.79;98657.11;1797755;79;20968;-41
2021/12/07 06:02:20;;;;;;;19.77;11.48;;;;;;;3.61;71.55;98653.44;1795173;79;20940;-42
2021/12/07 06:04:46;;;;;;;20.15;12.30;;;;;;;3.64;71.46;98651.42;1795345;79;21011;-42
2021/12/07 06:07:13;;;;;;;19.60;12.28;;;;;;;3.63;71.48;98650.64;1795310;79;21012;-42
2021/12/07 06:09:41;;;;;;;19.02;11.55;;;;;;;3.60;71.47;98655.33;1814034;78;20996;-41
2021/12/07 06:12:08;;;;;;;21.62;12.90;;;;;;;3.58;71.49;98660.25;1797590;79;21004;-42
2021/12/07 06:14:42;;;;;;;17.70;11.05;;;;;;;3.54;71.38;98661.22;1813951;79;21573;-42
2021/12/07 06:17:04;;;;;;;18.45;11.40;;;;;;;3.52;71.34;98659.44;1790493;79;21071;-41
2021/12/07 06:19:30;;;;;;;16.60;10.45;;;;;;;3.56;71.31;98659.79;1814121;79;21083;-42
2021/12/07 06:21:57;;;;;;;19.98;11.73;;;;;;;3.57;71.07;98651.98;1797525;79;21147;-42
2021/12/07 06:24:23;;;;;;;19.23;10.53;;;;;;;3.53;71.20;98647.06;1813865;79;21075;-41
2021/12/07 06:26:50;;;;;;;15.70;9.68;;;;;;;3.47;71.23;98635.77;1797563;79;20921;-42
2021/12/07 06:29:16;;;;;;;13.78;9.05;;;;;;;3.41;71.35;98633.05;1814211;79;21004;-42
2021/12/07 06:31:43;;;;;;;14.43;9.88;;;;;;;3.38;71.33;98634.27;1795354;79;21063;-41
2021/12/07 06:34:11;;;;;;;13.88;9.08;;;;;;;3.33;71.52;98639.28;1814129;79;21121;-41
2021/12/07 06:36:38;;;;;;;14.58;8.83;;;;;;;3.33;71.47;98644.64;1813950;79;21561;-41
2021/12/07 06:39:06;;;;;;;14.55;8.98;;;;;;;3.31;71.48;98641.49;1812095;78;20988;-41
2021/12/07 06:41:33;;;;;;;16.20;10.05;;;;;;;3.24;71.68;98644.48;1808774;79;21597;-42
2021/12/07 06:44:00;;;;;;;15.83;9.78;;;;;;;3.19;72.00;98656.73;1809053;79;21563;-42
2021/12/07 06:46:27;;;;;;;16.42;9.70;;;;;;;3.15;72.00;98659.27;1808901;79;21888;-42
2021/12/07 06:48:54;;;;;;;16.10;9.00;;;;;;;3.13;72.09;98674.11;1808806;79;21460;-41
2021/12/07 06:51:21;;;;;;;14.13;9.00;;;;;;;3.17;72.23;98687.07;1808937;79;20996;-41
2021/12/07 06:53:47;;;;;;;13.58;8.60;;;;;;;3.26;72.18;98688.57;1809174;79;21019;-42
2021/12/07 06:56:14;;;;;;;15.35;8.73;;;;;;;3.32;71.95;98689.16;1808873;79;21006;-42
2021/12/07 06:58:40;;;;;;;14.30;8.88;;;;;;;3.34;71.99;98686.95;1808766;79;21123;-41
2021/12/07 07:01:10;;;;;;;14.85;8.95;;;;;;;3.33;71.87;98692.86;1808819;79;21507;-41
2021/12/07 07:03:36;;;;;;;15.30;9.78;;;;;;;3.31;71.96;98700.98;1809209;79;21037;-41
2021/12/07 07:06:03;;;;;;;13.40;8.43;;;;;;;3.29;72.00;98712.59;1797631;79;21587;-42
2021/12/07 07:08:31;;;;;;;14.35;8.18;;;;;;;3.30;71.90;98728.33;1796660;79;21043;-41
2021/12/07 07:10:59;;;;;;;11.88;6.90;;;;;;;3.36;71.87;98718.98;1796797;79;21813;-42
2021/12/07 07:13:25;;;;;;;11.57;7.75;;;;;;;3.39;71.77;98722.34;1796716;79;21493;-42
2021/12/07 07:15:52;;;;;;;11.00;6.85;;;;;;;3.39;71.88;98729.04;1796633;79;21026;-41
2021/12/07 07:19:48;;;;;;;9.85;6.53;;;;;;;3.46;71.72;98719.94;1829931;78;22461;-41
2021/12/07 07:22:14;;;;;;;9.40;6.72;;;;;;;3.36;71.72;98716.30;1802644;79;20947;-41
2021/12/07 07:24:42;;;;;;;9.08;6.35;;;;;;;3.33;71.62;98709.48;1802584;79;21737;-40
2021/12/07 07:27:09;;;;;;;8.55;6.40;;;;;;;3.30;71.57;98708.78;1802669;79;20990;-40
2021/12/07 07:29:37;;;;;;;6.53;5.35;;;;;;;3.33;71.50;98711.61;1802633;79;21682;-40
2021/12/07 07:32:06;;;;;;;7.60;5.40;;;;;;;3.35;71.38;98712.05;1802594;79;21575;-41
2021/12/07 07:34:34;;;;;;;6.70;5.45;;;;;;;3.31;71.44;98712.48;1802559;79;21321;-40
2021/12/07 07:37:01;;;;;;;8.23;5.20;;;;;;;3.29;71.56;98720.05;1802386;79;21085;-41
2021/12/07 07:39:28;;;;;;;6.95;5.25;;;;;;;3.28;71.66;98727.88;1802184;79;21005;-40
2021/12/07 07:41:54;;;;;;;7.85;5.37;;;;;;;3.27;71.52;98730.88;1800886;79;20958;-40
2021/12/07 07:44:23;;;;;;;6.30;4.83;;;;;;;3.24;71.56;98728.86;1799465;79;21507;-40
2021/12/07 07:46:51;;;;;;;6.08;4.87;;;;;;;3.28;71.58;98726.55;1800880;79;21029;-40
2021/12/07 07:49:18;;;;;;;7.00;5.28;;;;;;;3.33;71.48;98728.23;1801635;79;21939;-40
2021/12/07 07:51:45;;;;;;;6.60;4.83;;;;;;;3.34;71.57;98723.13;1802475;79;21573;-40
2021/12/07 07:54:11;;;;;;;6.95;5.40;;;;;;;3.37;71.52;98737.19;1802587;79;21020;-40
2021/12/07 07:56:39;;;;;;;8.45;5.03;;;;;;;3.33;71.42;98726.91;1802585;79;21511;-41
2021/12/07 07:59:06;;;;;;;6.20;5.00;;;;;;;3.30;71.47;98735.02;1802429;79;21033;-40
2021/12/07 08:01:35;;;;;;;8.35;5.03;;;;;;;3.29;71.52;98743.41;1802403;79;21203;-41
2021/12/07 08:04:03;;;;;;;6.35;3.95;;;;;;;3.32;71.59;98744.08;1802502;79;21009;-40
2021/12/07 08:06:30;;;;;;;6.63;5.00;;;;;;;3.39;71.51;98747.80;1802860;79;21018;-41
2021/12/07 08:08:57;;;;;;;6.70;4.40;;;;;;;3.40;71.52;98747.23;1792190;79;20928;-41
2021/12/07 08:11:25;;;;;;;6.20;4.60;;;;;;;3.38;71.50;98752.16;1786198;80;20916;-40
2021/12/07 08:13:51;;;;;;;8.05;5.50;;;;;;;3.37;71.48;98746.56;1785964;80;21117;-40
2021/12/07 08:16:19;;;;;;;6.67;4.95;;;;;;;3.35;71.40;98743.41;1785918;80;21526;-41
2021/12/07 08:18:49;;;;;;;6.53;4.80;;;;;;;3.32;71.58;98740.84;1782156;79;21632;-40
2021/12/07 08:21:16;;;;;;;5.75;4.65;;;;;;;3.36;71.43;98739.08;1778118;80;21079;-41
2021/12/07 08:23:43;;;;;;;6.05;4.67;;;;;;;3.38;71.42;98737.42;1777944;80;21083;-40
2021/12/07 08:26:13;;;;;;;7.33;5.12;;;;;;;3.37;71.50;98742.55;1777930;80;21118;-40
2021/12/07 08:28:40;;;;;;;6.83;5.20;;;;;;;3.37;71.48;98733.17;1777978;80;21012;-40
2021/12/07 08:31:08;;;;;;;5.58;4.78;;;;;;;3.38;71.45;98734.19;1777410;80;21597;-41
2021/12/07 08:33:35;;;;;;;6.80;5.00;;;;;;;3.37;71.50;98738.53;1777521;80;21048;-41
2021/12/07 08:36:04;;;;;;;5.67;4.50;;;;;;;3.39;71.39;98740.30;1777531;80;21087;-40
2021/12/07 08:38:30;;;;;;;5.60;4.50;;;;;;;3.42;71.32;98724.94;1777295;80;21095;-41
2021/12/07 08:40:59;;;;;;;5.90;4.45;;;;;;;3.42;71.29;98720.92;1727274;80;20968;-40
2021/12/07 08:43:28;;;;;;;7.55;5.15;;;;;;;3.41;71.38;98731.40;1718754;82;20965;-40
2021/12/07 08:45:56;;;;;;;7.28;4.80;;;;;;;3.41;71.54;98740.23;1718802;82;28633;-40
2021/12/07 08:48:23;;;;;;;5.40;4.62;;;;;;;3.43;71.58;98739.36;1718879;83;21041;-41
2021/12/07 08:50:50;;;;;;;5.53;4.10;;;;;;;3.46;71.52;98753.98;1718676;83;21099;-41
2021/12/07 08:53:18;;;;;;;5.80;4.17;;;;;;;3.53;71.33;98756.14;1718496;83;20969;-40
2021/12/07 09:01:17;;;;;;;6.67;5.05;;;;;;;3.65;71.03;98736.88;1718736;83;21486;-41
2021/12/07 09:03:45;;;;;;;9.68;5.92;;;;;;;3.62;70.95;98728.16;1718647;82;21146;-41
2021/12/07 09:06:11;;;;;;;9.65;5.65;;;;;;;3.62;71.01;98727.38;1718543;83;20949;-42
2021/12/07 09:08:40;;;;;;;7.17;4.95;;;;;;;3.58;70.82;98728.59;1718918;83;20973;-41
2021/12/07 09:11:07;;;;;;;6.90;4.92;;;;;;;3.57;70.92;98722.22;1718709;82;21084;-42
2021/12/07 09:13:36;;;;;;;9.03;5.30;;;;;;;3.24;70.81;98672.06;1719087;82;20980;-42
2021/12/07 09:16:03;;;;;;;8.70;5.75;;;;;;;3.58;70.94;98717.88;1718542;83;21130;-41
2021/12/07 09:18:30;;;;;;;8.23;5.92;;;;;;;3.57;71.02;98720.32;1730424;80;21000;-41
2021/12/07 09:20:57;;;;;;;12.18;7.90;;;;;;;3.50;71.05;98718.16;1776034;80;21036;-41
2021/12/07 09:23:24;;;;;;;9.05;5.92;;;;;;;3.47;71.15;98718.04;1776358;80;21054;-41
2021/12/07 09:25:51;;;;;;;6.05;4.50;;;;;;;3.43;71.22;98715.80;1776081;80;21030;-42
2021/12/07 09:28:17;;;;;;;5.25;4.33;;;;;;;3.41;71.24;98720.13;1776123;80;21690;-41
2021/12/07 09:30:50;;;;;;;5.70;4.25;;;;;;;3.43;71.29;98716.58;1776034;80;20927;-42
2021/12/07 09:33:13;;;;;;;5.65;4.75;;;;;;;3.45;71.28;98714.89;1775058;80;21010;-41
2021/12/07 09:35:39;;;;;;;9.05;5.83;;;;;;;3.40;71.27;98715.09;1775980;80;20935;-41
2021/12/07 09:38:06;;;;;;;6.65;5.08;;;;;;;2.82;71.36;98632.43;1775835;80;21066;-41
2021/12/07 09:40:33;;;;;;;5.83;4.47;;;;;;;3.31;71.52;98711.70;1797434;79;21837;-41
2021/12/07 09:42:59;;;;;;;9.35;5.20;;;;;;;3.28;71.67;98712.36;1807683;79;21494;-41
2021/12/07 09:45:30;;;;;;;7.70;4.45;;;;;;;3.31;71.69;98705.79;1807615;78;21052;-42
2021/12/07 09:47:56;;;;;;;5.35;4.37;;;;;;;3.36;71.72;98706.93;1808151;79;21076;-41
2021/12/07 09:50:23;;;;;;;10.32;5.80;;;;;;;3.36;71.77;98706.14;1807812;79;21013;-41
2021/12/07 09:52:50;;;;;;;7.08;5.10;;;;;;;3.33;71.81;98711.61;1807743;79;21179;-41
2021/12/07 09:55:17;;;;;;;7.58;5.30;;;;;;;3.31;71.98;98709.81;1807735;79;21017;-41
2021/12/07 09:57:45;;;;;;;5.47;4.80;;;;;;;3.34;72.00;98711.06;1807976;78;21614;-41
2021/12/07 10:00:17;;;;;;;5.90;4.55;;;;;;;3.36;72.01;98711.50;1807827;79;20953;-42
2021/12/07 10:02:44;;;;;;;7.95;4.83;;;;;;;3.40;71.90;98716.43;1808065;78;21188;-41
2021/12/07 10:05:13;;;;;;;5.30;4.42;;;;;;;3.38;71.92;98709.29;1807831;79;21127;-41
2021/12/07 10:07:41;;;;;;;;;;;;;;;3.35;71.93;98704.57;1810391;78;21557;-42
2021/12/07 10:10:10;;;;;;;5.47;4.83;;;;;;;3.00;72.00;98645.16;1778572;79;20113;-41
2021/12/07 10:12:37;;;;;;;5.45;4.30;;;;;;;3.18;72.23;98694.79;1778873;79;21004;-42
2021/12/07 10:15:06;;;;;;;4.55;3.60;;;;;;;3.15;72.24;98696.00;1776546;79;21033;-41
2021/12/07 10:17:38;;;;;;;4.37;3.62;;;;;;;3.13;72.15;98694.19;1776166;80;21758;-41
2021/12/07 10:20:36;;;;;;;4.28;3.67;;;;;;;3.11;72.24;98689.16;1741294;81;21539;-42
2021/12/07 10:23:16;;;;;;;5.95;4.35;;;;;;;3.11;72.46;98695.06;1718323;83;21041;-41
2021/12/07 10:25:46;;;;;;;5.55;4.08;;;;;;;3.04;72.50;98688.91;1694103;84;21551;-41
2021/12/07 10:28:52;;;;;;;5.40;4.28;;;;;;;3.00;72.58;98690.67;1723136;82;21029;-41
2021/12/07 10:31:33;;;;;;;5.00;4.00;;;;;;;3.00;72.74;98688.75;1700377;83;21213;-41
2021/12/07 10:34:21;;;;;;;5.62;4.37;;;;;;;3.04;72.84;98696.94;1711748;83;20925;-41
2021/12/07 10:36:51;;;;;;;6.58;4.40;;;;;;;3.06;72.88;98702.19;1712055;83;21009;-41
2021/12/07 10:39:23;;;;;;;5.97;4.37;;;;;;;3.04;72.66;98695.05;1717780;82;20967;-41
2021/12/07 10:42:00;;;;;;;4.97;4.03;;;;;;;3.04;72.82;98696.94;1742179;82;21491;-41
2021/12/07 10:44:30;;;;;;;7.30;3.83;;;;;;;3.04;72.61;98689.69;1742597;82;21172;-42
2021/12/07 10:47:12;;;;;;;5.08;3.52;;;;;;;3.03;72.54;98690.80;1742396;82;21009;-41
2021/12/07 10:49:51;;;;;;;4.60;3.45;;;;;;;3.05;72.65;98697.14;1742418;82;20965;-42
2021/12/07 10:52:42;;;;;;;7.22;4.00;;;;;;;3.02;72.65;98701.27;1742637;82;21398;-41
2021/12/07 10:55:23;;;;;;;5.33;3.77;;;;;;;2.98;72.71;98688.31;1742456;82;21104;-41
2021/12/07 10:57:58;;;;;;;5.25;3.47;;;;;;;2.91;72.70;98690.70;1742696;81;21126;-41
2021/12/07 11:00:40;;;;;;;5.40;3.60;;;;;;;2.88;72.65;98684.67;1742369;82;21029;-42
2021/12/07 11:03:11;;;;;;;10.18;3.95;;;;;;;2.88;72.66;98680.66;1753384;81;20990;-41
2021/12/07 11:05:41;;;;;;;9.05;4.58;;;;;;;2.90;72.84;98675.78;1742348;82;21503;-41
2021/12/07 11:08:09;;;;;;;7.28;4.40;;;;;;;2.91;72.87;98678.66;1742954;82;21061;-41
2021/12/07 11:10:45;;;;;;;9.48;4.87;;;;;;;2.90;72.91;98671.76;1742566;81;21105;-41
2021/12/07 11:13:20;;;;;;;5.08;4.05;;;;;;;2.87;72.91;98664.91;1742785;82;20977;-42
2021/12/07 11:15:55;;;;;;;4.85;3.72;;;;;;;2.85;73.01;98661.79;1742608;81;20973;-41
2021/12/07 11:18:29;;;;;;;6.78;4.12;;;;;;;2.89;72.91;98668.06;1742671;82;21136;-42
2021/12/07 11:21:12;;;;;;;6.35;4.30;;;;;;;2.90;72.87;98665.06;1747893;81;21052;-42
2021/12/07 11:23:50;;;;;;;5.10;4.10;;;;;;;2.87;72.97;98664.91;1729745;82;21070;-41
2021/12/07 11:31:43;;;;;;;4.58;3.30;;;;;;;2.78;73.17;98654.27;1796684;79;21036;-42
2021/12/07 11:34:15;;;;;;;4.42;3.52;;;;;;;2.80;73.10;98652.06;1795497;79;21009;-41
2021/12/07 11:36:58;;;;;;;4.10;3.50;;;;;;;2.79;73.11;98653.16;1796526;79;21085;-41
2021/12/07 11:39:48;;;;;;;5.15;4.10;;;;;;;2.78;73.25;98659.63;1771930;79;21076;-41
2021/12/07 11:42:26;;;;;;;6.17;3.98;;;;;;;2.78;73.28;98662.30;1796701;79;21550;-41
2021/12/07 11:45:03;;;;;;;5.70;4.28;;;;;;;2.78;73.28;98673.00;1796598;79;21005;-41
2021/12/07 11:47:39;;;;;;;5.55;3.85;;;;;;;2.82;73.33;98681.16;1796622;79;21053;-41
2021/12/07 11:50:35;;;;;;;6.45;4.00;;;;;;;2.90;73.19;98679.00;1797195;79;21144;-41
2021/12/07 11:53:08;;;;;;;5.50;4.05;;;;;;;2.93;73.22;98683.14;1754913;81;20953;-41
2021/12/07 11:55:38;;;;;;;6.25;4.45;;;;;;;2.93;73.08;98680.47;1789767;79;21060;-42
2021/12/07 11:58:07;;;;;;;3.83;2.83;;;;;;;2.92;73.01;98675.43;1796977;79;21535;-42
2021/12/07 12:00:39;;;;;;;5.40;3.75;;;;;;;2.92;72.93;98677.55;1797432;79;21013;-41
2021/12/07 12:03:07;;;;;;;5.40;4.05;;;;;;;2.93;72.68;98668.97;1796611;79;21126;-42
2021/12/07 12:05:36;;;;;;;4.53;3.50;;;;;;;2.88;72.83;98660.58;1797004;79;21005;-41
2021/12/07 12:08:07;;;;;;;5.25;3.70;;;;;;;2.85;72.72;98661.79;1796915;79;21586;-41
2021/12/07 12:10:32;;;;;;;;;;;;;;;2.78;72.73;98662.30;1799449;79;20962;-42
2021/12/07 12:13:40;;;;;;;4.15;3.33;;;;;;;2.75;72.73;98667.52;1796909;79;20177;-42
2021/12/07 12:16:25;;;;;;;4.28;3.20;;;;;;;2.65;72.91;98662.55;1796875;79;21805;-41
2021/12/07 12:19:00;;;;;;;3.50;2.98;;;;;;;2.63;72.96;98662.86;1796737;79;20922;-41
2021/12/07 12:22:01;;;;;;;4.03;3.35;;;;;;;2.59;73.16;98675.32;1796908;79;21073;-41
2021/12/07 12:24:49;;;;;;;4.22;3.60;;;;;;;2.50;73.23;98683.40;1796913;79;21307;-42
2021/12/07 12:27:19;;;;;;;3.58;3.08;;;;;;;2.43;73.60;98684.99;1753353;79;21033;-41
2021/12/07 12:29:50;;;;;;;3.42;3.10;;;;;;;2.46;73.65;98694.52;1796858;79;21141;-42
2021/12/07 12:32:36;;;;;;;4.55;3.30;;;;;;;2.55;73.55;98695.80;1796732;79;21559;-41
2021/12/07 12:35:09;;;;;;;4.15;3.05;;;;;;;2.54;73.25;98711.63;1796834;78;21504;-41
2021/12/07 12:37:36;;;;;;;3.60;2.98;;;;;;;2.47;73.39;98719.38;1796748;79;21629;-41
2021/12/07 12:40:08;;;;;;;3.52;2.92;;;;;;;2.46;73.52;98719.14;1796900;79;21519;-42
2021/12/07 12:42:45;;;;;;;6.92;2.80;;;;;;;2.45;73.60;98714.34;1796761;79;21081;-41
2021/12/07 12:45:31;;;;;;;3.83;2.92;;;;;;;2.47;73.55;98710.77;1796663;79;20958;-41
2021/12/07 12:48:08;;;;;;;3.90;3.17;;;;;;;2.49;73.41;98718.49;1796855;79;21068;-41
2021/12/07 12:50:52;;;;;;;3.42;3.02;;;;;;;2.47;73.48;98724.73;1796855;79;21076;-41
2021/12/07 12:53:26;;;;;;;3.87;3.12;;;;;;;2.44;73.36;98720.00;1796991;79;21025;-41
2021/12/07 12:56:03;;;;;;;3.20;2.72;;;;;;;2.36;73.30;98733.66;1796958;79;21169;-41
2021/12/07 12:58:37;;;;;;;3.62;2.52;;;;;;;2.34;73.47;98727.83;1796676;79;20957;-42
2021/12/07 13:01:21;;;;;;;3.60;2.60;;;;;;;2.39;73.47;98726.32;1796751;79;20930;-41
2021/12/07 13:04:10;;;;;;;3.42;2.87;;;;;;;2.38;73.38;98709.24;1796808;79;21516;-41
2021/12/07 13:06:50;;;;;;;4.15;2.90;;;;;;;2.38;73.60;98706.02;1796838;79;21037;-41
2021/12/07 13:09:26;;;;;;;3.50;3.20;;;;;;;2.39;73.62;98700.12;1796767;79;21088;-41
2021/12/07 13:12:10;;;;;;;3.20;2.90;;;;;;;2.38;73.63;98702.00;1796652;79;21008;-42
2021/12/07 13:14:52;;;;;;;3.47;2.92;;;;;;;2.40;73.47;98697.69;1796872;79;20986;-42
2021/12/07 13:17:29;;;;;;;4.08;3.27;;;;;;;2.37;73.50;98692.98;1796751;78;20953;-41
2021/12/07 13:20:22;;;;;;;4.35;3.70;;;;;;;2.29;73.79;98694.58;1799531;79;21495;-42
2021/12/07 13:23:10;;;;;;;4.80;3.50;;;;;;;2.25;73.96;98692.31;1807910;79;21838;-41
2021/12/07 13:25:43;;;;;;;3.62;3.30;;;;;;;2.23;74.18;98695.84;1807687;79;21514;-41
2021/12/07 13:28:26;;;;;;;4.12;3.15;;;;;;;2.29;74.22;98689.77;1808013;78;21060;-41
2021/12/07 13:31:13;;;;;;;4.03;3.20;;;;;;;2.34;74.11;98690.94;1807852;79;20948;-41
2021/12/07 13:33:52;;;;;;;4.83;2.92;;;;;;;2.34;74.11;98698.95;1807983;78;21723;-41